createdAt,value
2022-08-17T00:00:02.906Z,1010.99
2022-08-17T00:05:02.620Z,1010.98
2022-08-17T00:10:02.262Z,1010.93
2022-08-17T00:15:03.230Z,1011.03
2022-08-17T00:20:02.518Z,1010.91
2022-08-17T00:25:02.299Z,1010.95
2022-08-17T00:30:02.572Z,1011.04
2022-08-17T00:35:02.284Z,1011.09
2022-08-17T00:40:03.002Z,1011.03
2022-08-17T00:45:02.812Z,1011.1
2022-08-17T00:50:02.817Z,1011.19
2022-08-17T00:55:03.551Z,1011.21
2022-08-17T01:00:03.726Z,1011.16
2022-08-17T01:05:02.968Z,1011.17
2022-08-17T01:10:03.051Z,1011.16
2022-08-17T01:15:02.639Z,1011.16
2022-08-17T01:20:02.908Z,1011.32
2022-08-17T01:25:02.780Z,1011.24
2022-08-17T01:30:03.255Z,1011.26
2022-08-17T01:35:03.065Z,1011.33
2022-08-17T01:40:02.911Z,1011.22
2022-08-17T01:45:03.735Z,1011.33
2022-08-17T01:50:03.255Z,1011.24
2022-08-17T01:55:03.884Z,1011.23
2022-08-17T02:00:02.741Z,1011.3
2022-08-17T02:05:02.725Z,1011.32
2022-08-17T02:10:02.572Z,1011.35
2022-08-17T02:15:03.055Z,1011.35
2022-08-17T02:20:03.189Z,1011.37
2022-08-17T02:25:03.090Z,1011.29
2022-08-17T02:30:03.106Z,1011.23
2022-08-17T02:35:02.658Z,1011.3
2022-08-17T02:40:03.058Z,1011.22
2022-08-17T02:45:02.662Z,1011.17
2022-08-17T02:50:02.314Z,1011.09
2022-08-17T02:55:04.331Z,1011.23
2022-08-17T03:00:02.884Z,1011.22
2022-08-17T03:05:02.462Z,1011.28
2022-08-17T03:10:02.234Z,1011.2
2022-08-17T03:15:02.989Z,1011.12
2022-08-17T03:20:02.855Z,1011.12
2022-08-17T03:25:11.090Z,1011.12
2022-08-17T03:30:03.361Z,1011.08
2022-08-17T03:35:02.992Z,1011.16
2022-08-17T03:40:03.043Z,1011.15
2022-08-17T03:45:03.190Z,1011.17
2022-08-17T03:50:02.978Z,1011.11
2022-08-17T03:55:03.876Z,1011.15
2022-08-17T04:00:03.036Z,1011.09
2022-08-17T04:05:02.348Z,1011.15
2022-08-17T04:10:03.256Z,1011.06
2022-08-17T04:15:02.689Z,1011.18
2022-08-17T04:20:02.569Z,1011.07
2022-08-17T04:25:02.344Z,1011.26
2022-08-17T04:30:03.263Z,1011.19
2022-08-17T04:35:02.784Z,1011.34
2022-08-17T04:40:04.915Z,1011.34
2022-08-17T04:45:03.412Z,1011.46
2022-08-17T04:50:03.422Z,1011.52
2022-08-17T04:55:04.015Z,1011.56
2022-08-17T05:00:02.557Z,1011.71
2022-08-17T05:05:02.602Z,1011.62
2022-08-17T05:10:02.314Z,1011.64
2022-08-17T05:15:02.971Z,1011.75
2022-08-17T05:20:02.435Z,1011.78
2022-08-17T05:25:03.207Z,1011.76
2022-08-17T05:30:02.491Z,1011.61
2022-08-17T05:35:03.098Z,1011.62
2022-08-17T05:40:02.878Z,1011.58
2022-08-17T05:45:02.485Z,1011.65
2022-08-17T05:50:10.331Z,1011.64
2022-08-17T05:55:03.696Z,1011.73
2022-08-17T06:00:03.251Z,1011.63
2022-08-17T06:05:02.543Z,1011.72
2022-08-17T06:10:03.185Z,1011.7
2022-08-17T06:15:02.721Z,1011.77
2022-08-17T06:20:02.487Z,1011.77
2022-08-17T06:25:10.477Z,1011.72
2022-08-17T06:30:02.958Z,1011.81
2022-08-17T06:35:02.572Z,1011.73
2022-08-17T06:40:03.539Z,1011.78
2022-08-17T06:45:02.643Z,1011.82
2022-08-17T06:50:02.287Z,1011.95
2022-08-17T06:55:04.506Z,1011.9
2022-08-17T07:00:02.420Z,1011.84
2022-08-17T07:05:03.020Z,1011.78
2022-08-17T07:10:02.665Z,1011.89
2022-08-17T07:15:02.333Z,1011.93
2022-08-17T07:20:02.255Z,1011.89
2022-08-17T07:25:02.871Z,1011.98
2022-08-17T07:35:02.701Z,1011.93
2022-08-17T07:40:15.730Z,1012.01
2022-08-17T07:45:03.317Z,1011.85
2022-08-17T07:50:02.690Z,1011.8
2022-08-17T07:55:03.422Z,1011.85
2022-08-17T08:00:03.272Z,1011.87
2022-08-17T08:05:02.820Z,1011.85
2022-08-17T08:10:02.623Z,1011.85
2022-08-17T08:15:02.339Z,1011.84
2022-08-17T08:20:35.118Z,1011.93
2022-08-17T08:25:02.852Z,1011.98
2022-08-17T08:30:02.506Z,1011.98
2022-08-17T08:35:03.467Z,1011.85
2022-08-17T08:40:02.492Z,1012.04
2022-08-17T08:45:04.334Z,1012.01
2022-08-17T08:50:04.627Z,1012.02
2022-08-17T08:55:03.627Z,1012
2022-08-17T09:00:03.021Z,1012.11
2022-08-17T09:05:16.385Z,1012.2
2022-08-17T09:10:03.162Z,1012.22
2022-08-17T09:15:03.030Z,1011.98
2022-08-17T09:20:02.701Z,1012.09
2022-08-17T09:25:03.040Z,1012.1
2022-08-17T09:30:02.746Z,1012.04
2022-08-17T09:35:03.127Z,1011.95
2022-08-17T09:40:02.715Z,1011.96
2022-08-17T09:45:03.198Z,1011.9
2022-08-17T09:50:03.042Z,1011.91
2022-08-17T09:55:03.909Z,1011.89
2022-08-17T10:00:03.269Z,1011.87
2022-08-17T10:05:02.263Z,1011.93
2022-08-17T10:10:03.634Z,1011.93
2022-08-17T10:15:09.875Z,1011.94
2022-08-17T10:20:02.771Z,1011.9
2022-08-17T10:25:21.978Z,1011.77
2022-08-17T10:30:02.846Z,1011.65
2022-08-17T10:35:02.695Z,1011.67
2022-08-17T10:40:02.371Z,1011.68
2022-08-17T10:45:03.008Z,1011.68
2022-08-17T10:50:02.863Z,1011.65
2022-08-17T10:55:04.019Z,1011.6
2022-08-17T11:00:03.170Z,1011.55
2022-08-17T11:05:02.822Z,1011.51
2022-08-17T11:10:03.184Z,1011.49
2022-08-17T11:15:03.073Z,1011.56
2022-08-17T11:20:02.711Z,1011.37
2022-08-17T11:25:03.089Z,1011.31
2022-08-17T11:30:03.405Z,1011.37
2022-08-17T11:35:03.313Z,1011.24
2022-08-17T11:40:02.980Z,1011.21
2022-08-17T11:45:03.521Z,1011.2
2022-08-17T11:50:02.809Z,1011.32
2022-08-17T11:55:40.616Z,1011.23
2022-08-17T12:05:03.132Z,1011.27
2022-08-17T12:10:02.779Z,1011.24
2022-08-17T12:15:11.281Z,1011.17
2022-08-17T12:20:03.133Z,1011.08
2022-08-17T12:25:02.812Z,1010.98
2022-08-17T12:30:02.570Z,1011.03
2022-08-17T12:35:03.195Z,1011.05
2022-08-17T12:40:03.447Z,1011.05
2022-08-17T12:45:02.465Z,1011.09
2022-08-17T12:50:03.338Z,1010.88
2022-08-17T12:55:04.179Z,1011.03
2022-08-17T13:00:02.307Z,1011.06
2022-08-17T13:05:02.939Z,1010.98
2022-08-17T13:10:03.160Z,1010.91
2022-08-17T13:15:03.141Z,1010.81
2022-08-17T13:20:02.485Z,1010.79
2022-08-17T13:25:02.253Z,1010.92
2022-08-17T13:35:15.181Z,1010.88
2022-08-17T13:40:02.348Z,1010.82
2022-08-17T13:45:39.474Z,1010.7
2022-08-17T13:55:04.326Z,1010.78
2022-08-17T14:00:02.896Z,1010.66
2022-08-17T14:05:07.175Z,1010.58
2022-08-17T14:10:02.535Z,1010.56
2022-08-17T14:15:02.950Z,1010.65
2022-08-17T14:20:02.619Z,1010.55
2022-08-17T14:25:02.939Z,1010.56
2022-08-17T14:30:02.848Z,1010.57
2022-08-17T14:35:02.689Z,1010.51
2022-08-17T14:40:03.148Z,1010.51
2022-08-17T14:45:02.844Z,1010.42
2022-08-17T14:50:02.851Z,1010.45
2022-08-17T14:55:04.484Z,1010.48
2022-08-17T15:00:02.671Z,1010.49
2022-08-17T15:05:02.788Z,1010.44
2022-08-17T15:10:03.075Z,1010.44
2022-08-17T15:15:05.819Z,1010.41
2022-08-17T15:20:03.086Z,1010.31
2022-08-17T15:25:02.831Z,1010.25
2022-08-17T15:30:02.678Z,1010.23
2022-08-17T15:35:03.295Z,1010.17
2022-08-17T15:40:02.678Z,1010.22
2022-08-17T15:45:02.903Z,1010.17
2022-08-17T15:50:02.751Z,1010.25
2022-08-17T15:55:04.519Z,1010.29
2022-08-17T16:00:02.611Z,1010.24
2022-08-17T16:05:10.368Z,1010.19
2022-08-17T16:10:03.221Z,1010.02
2022-08-17T16:15:02.519Z,1009.92
2022-08-17T16:20:03.212Z,1009.98
2022-08-17T16:25:02.784Z,1009.93
2022-08-17T16:30:03.190Z,1009.84
2022-08-17T16:35:03.150Z,1009.83
2022-08-17T16:40:03.084Z,1009.86
2022-08-17T16:45:03.210Z,1009.91
2022-08-17T16:50:02.959Z,1009.9
2022-08-17T16:55:03.435Z,1009.87
2022-08-17T17:00:03.038Z,1009.82
2022-08-17T17:05:02.458Z,1009.74
2022-08-17T17:10:03.378Z,1009.86
2022-08-17T17:15:02.582Z,1009.74
2022-08-17T17:20:02.291Z,1009.81
2022-08-17T17:25:03.041Z,1009.71
2022-08-17T17:30:02.977Z,1009.77
2022-08-17T17:35:02.865Z,1009.84
2022-08-17T17:40:03.146Z,1009.96
2022-08-17T17:45:02.806Z,1009.99
2022-08-17T17:50:03.410Z,1009.89
2022-08-17T17:55:03.992Z,1009.88
2022-08-17T18:00:02.776Z,1009.84
2022-08-17T18:05:03.394Z,1009.85
2022-08-17T18:10:02.833Z,1009.9
2022-08-17T18:15:02.334Z,1009.87
2022-08-17T18:20:02.967Z,1009.91
2022-08-17T18:25:02.598Z,1009.9
2022-08-17T18:30:05.813Z,1009.94
2022-08-17T18:35:02.976Z,1009.9
2022-08-17T18:40:02.373Z,1009.9
2022-08-17T18:45:03.661Z,1009.89
2022-08-17T18:50:02.952Z,1010.03
2022-08-17T18:55:04.327Z,1010.03
2022-08-17T19:00:02.952Z,1010.03
2022-08-17T19:05:02.514Z,1009.98
2022-08-17T19:10:02.304Z,1010.05
2022-08-17T19:15:03.007Z,1010.12
2022-08-17T19:20:02.363Z,1010
2022-08-17T19:25:02.992Z,1010.03
2022-08-17T19:30:07.114Z,1010.02
2022-08-17T19:35:02.213Z,1009.95
2022-08-17T19:40:03.053Z,1009.9
2022-08-17T19:45:02.622Z,1009.97
2022-08-17T19:50:02.677Z,1009.91
2022-08-17T19:55:04.571Z,1009.84
2022-08-17T20:00:02.746Z,1009.72
2022-08-17T20:05:02.667Z,1009.79
2022-08-17T20:10:03.061Z,1009.82
2022-08-17T20:15:02.876Z,1009.69
2022-08-17T20:20:03.094Z,1009.68
2022-08-17T20:25:02.727Z,1009.72
2022-08-17T20:30:03.164Z,1009.67
2022-08-17T20:35:03.238Z,1009.72
2022-08-17T20:40:03.341Z,1009.63
2022-08-17T20:45:02.703Z,1009.68
2022-08-17T20:50:03.196Z,1009.73
2022-08-17T20:55:03.630Z,1009.69
2022-08-17T21:00:03.142Z,1009.8
2022-08-17T21:05:02.417Z,1009.83
2022-08-17T21:10:02.912Z,1009.87
2022-08-17T21:15:02.655Z,1009.93
2022-08-17T21:20:11.714Z,1009.94
2022-08-17T21:25:02.455Z,1009.97
2022-08-17T21:30:04.007Z,1010
2022-08-17T21:35:02.416Z,1009.98
2022-08-17T21:40:02.483Z,1009.99
2022-08-17T21:45:03.106Z,1010.09
2022-08-17T21:50:02.861Z,1010.13
2022-08-17T21:55:03.703Z,1010.15
2022-08-17T22:00:03.510Z,1010.17
2022-08-17T22:05:03.105Z,1010.26
2022-08-17T22:15:02.235Z,1010.24
2022-08-17T22:20:02.884Z,1010.22
2022-08-17T22:25:02.601Z,1010.2
2022-08-17T22:30:03.008Z,1010.2
2022-08-17T22:35:02.586Z,1010.3
2022-08-17T22:45:03.175Z,1010.3
2022-08-17T22:50:02.779Z,1010.29
2022-08-17T22:55:10.210Z,1010.37
2022-08-17T23:00:02.504Z,1010.35
2022-08-17T23:05:03.077Z,1010.47
2022-08-17T23:10:02.843Z,1010.39
2022-08-17T23:15:02.579Z,1010.38
2022-08-17T23:20:02.627Z,1010.47
2022-08-17T23:25:02.872Z,1010.46
2022-08-17T23:30:02.286Z,1010.42
2022-08-17T23:35:02.960Z,1010.45
2022-08-17T23:40:02.412Z,1010.45
2022-08-17T23:45:02.337Z,1010.3
2022-08-17T23:50:03.056Z,1010.4
2022-08-17T23:55:03.927Z,1010.28
